createdAt,value
2019-04-23T00:02:10.113Z,53.40
2019-04-23T00:04:36.848Z,53.40
2019-04-23T00:07:15.979Z,53.60
2019-04-23T00:09:38.994Z,54.20
2019-04-23T00:12:11.996Z,54.30
2019-04-23T00:14:47.634Z,54.80
2019-04-23T00:17:15.928Z,54.90
2019-04-23T00:19:43.197Z,55.20
2019-04-23T00:22:19.997Z,55.60
2019-04-23T00:29:56.030Z,55.90
2019-04-23T00:35:03.036Z,56.20
2019-04-23T00:37:34.589Z,56.50
2019-04-23T00:39:52.406Z,56.90
2019-04-23T00:42:41.627Z,57.10
2019-04-23T00:47:32.934Z,57.90
2019-04-23T00:50:07.811Z,58.00
2019-04-23T00:52:30.542Z,58.30
2019-04-23T00:55:05.519Z,58.60
2019-04-23T00:57:31.909Z,59.20
2019-04-23T01:00:03.486Z,59.40
2019-04-23T01:02:30.851Z,59.60
2019-04-23T01:05:04.829Z,59.90
2019-04-23T01:10:15.033Z,60.40
2019-04-23T01:12:54.354Z,60.70
2019-04-23T01:15:24.229Z,60.90
2019-04-23T01:17:50.606Z,61.10
2019-04-23T01:20:14.174Z,61.80
2019-04-23T01:22:29.445Z,61.70
2019-04-23T01:25:11.269Z,62.00
2019-04-23T01:28:23.524Z,62.50
2019-04-23T01:30:52.828Z,63.10
2019-04-23T01:33:25.547Z,63.20
2019-04-23T01:36:01.417Z,63.60
2019-04-23T01:38:11.479Z,63.40
2019-04-23T01:40:40.871Z,63.60
2019-04-23T01:43:19.714Z,64.00
2019-04-23T01:45:38.370Z,64.40
2019-04-23T01:48:13.268Z,64.50
2019-04-23T01:50:48.730Z,64.70
2019-04-23T01:53:20.873Z,64.90
2019-04-23T01:55:47.198Z,65.70
2019-04-23T01:58:38.391Z,66.20
2019-04-23T02:00:47.677Z,66.50
2019-04-23T02:03:21.492Z,66.60
2019-04-23T02:05:48.074Z,66.60
2019-04-23T02:08:20.994Z,66.60
2019-04-23T02:13:27.629Z,66.90
2019-04-23T02:16:03.891Z,67.40
2019-04-23T02:18:23.377Z,67.70
2019-04-23T02:23:31.179Z,68.10
2019-04-23T02:26:17.142Z,68.40
2019-04-23T02:28:35.459Z,68.80
2019-04-23T02:31:43.088Z,69.00
2019-04-23T02:41:13.107Z,69.20
2019-04-23T02:43:28.140Z,69.20
2019-04-23T02:46:08.032Z,69.40
2019-04-23T02:48:51.318Z,69.20
2019-04-23T02:51:13.347Z,69.30
2019-04-23T02:53:53.217Z,69.70
2019-04-23T02:56:12.308Z,69.80
2019-04-23T03:01:19.544Z,70.20
2019-04-23T03:06:16.717Z,70.50
2019-04-23T03:11:32.547Z,70.50
2019-04-23T03:14:03.556Z,70.20
2019-04-23T03:16:45.957Z,70.30
2019-04-23T03:19:37.798Z,70.60
2019-04-23T03:22:05.992Z,70.80
2019-04-23T03:29:56.168Z,71.40
2019-04-23T03:42:24.067Z,71.80
2019-04-23T03:44:56.193Z,71.90
2019-04-23T03:52:27.703Z,73.30
2019-04-23T03:55:10.304Z,73.30
2019-04-23T03:57:24.519Z,73.30
2019-04-23T04:04:49.890Z,73.40
2019-04-23T04:09:52.033Z,73.60
2019-04-23T04:15:18.483Z,74.30
2019-04-23T04:17:35.223Z,74.40
2019-04-23T04:19:56.589Z,74.40
2019-04-23T04:25:02.827Z,75.60
2019-04-23T04:27:36.501Z,75.20
2019-04-23T04:30:01.570Z,75.10
2019-04-23T04:32:54.206Z,75.20
2019-04-23T04:37:44.175Z,75.50
2019-04-23T04:40:05.164Z,75.30
2019-04-23T04:42:27.406Z,75.20
2019-04-23T04:45:00.395Z,75.90
2019-04-23T04:47:35.457Z,75.80
2019-04-23T04:50:09.941Z,76.00
2019-04-23T04:52:47.023Z,76.00
2019-04-23T04:54:55.865Z,76.20
2019-04-23T04:57:36.493Z,77.00
2019-04-23T05:02:48.933Z,77.10
2019-04-23T05:05:46.315Z,77.40
2019-04-23T05:10:08.086Z,77.20
2019-04-23T05:12:32.589Z,77.60
2019-04-23T05:15:07.340Z,77.30
2019-04-23T05:17:42.431Z,77.80
2019-04-23T05:20:04.588Z,78.40
2019-04-23T05:22:45.372Z,78.70
2019-04-23T05:24:57.278Z,78.80
2019-04-23T05:27:44.711Z,78.40
2019-04-23T05:30:09.451Z,78.50
2019-04-23T05:32:32.851Z,78.70
2019-04-23T05:35:07.520Z,78.90
2019-04-23T05:37:47.686Z,78.30
2019-04-23T05:40:09.898Z,78.70
2019-04-23T05:42:32.048Z,78.50
2019-04-23T05:45:01.110Z,78.50
2019-04-23T05:47:53.426Z,78.40
2019-04-23T05:50:07.250Z,78.50
2019-04-23T05:52:37.909Z,78.60
2019-04-23T05:55:10.862Z,79.30
2019-04-23T05:57:34.662Z,78.20
2019-04-23T06:00:04.208Z,78.90
2019-04-23T06:02:41.890Z,78.40
2019-04-23T06:05:10.357Z,79.00
2019-04-23T06:07:38.965Z,78.40
2019-04-23T06:10:04.966Z,78.90
2019-04-23T06:12:39.969Z,78.40
2019-04-23T06:15:07.378Z,78.70
2019-04-23T06:17:54.194Z,78.70
2019-04-23T06:20:10.158Z,78.80
2019-04-23T06:25:14.969Z,78.40
2019-04-23T06:27:39.709Z,78.40
2019-04-23T06:30:15.150Z,78.20
2019-04-23T06:32:38.058Z,77.70
2019-04-23T06:35:08.705Z,77.40
2019-04-23T06:40:08.301Z,77.50
2019-04-23T06:42:57.907Z,77.30
2019-04-23T06:45:30.584Z,77.00
2019-04-23T06:48:01.857Z,77.00
2019-04-23T06:50:32.296Z,76.40
2019-04-23T06:52:57.271Z,76.50
2019-04-23T06:55:30.249Z,76.80
2019-04-23T06:58:04.614Z,76.30
2019-04-23T07:00:34.208Z,76.80
2019-04-23T07:03:09.358Z,77.40
2019-04-23T07:05:39.435Z,77.00
2019-04-23T07:08:02.870Z,77.30
2019-04-23T07:10:40.339Z,76.60
2019-04-23T07:13:07.618Z,76.90
2019-04-23T07:15:45.395Z,77.00
2019-04-23T07:18:14.106Z,76.60
2019-04-23T07:20:40.034Z,76.80
2019-04-23T07:23:13.564Z,76.60
2019-04-23T07:25:40.417Z,76.90
2019-04-23T07:28:16.698Z,75.30
2019-04-23T07:30:41.526Z,75.50
2019-04-23T07:33:11.283Z,75.40
2019-04-23T07:35:43.429Z,75.00
2019-04-23T07:38:33.090Z,73.90
2019-04-23T07:40:47.984Z,74.00
2019-04-23T07:43:23.491Z,73.80
2019-04-23T07:46:20.260Z,74.40
2019-04-23T07:48:43.354Z,73.90
2019-04-23T07:51:14.980Z,73.80
2019-04-23T07:53:48.285Z,73.30
2019-04-23T07:56:13.213Z,74.00
2019-04-23T07:58:39.360Z,74.80
2019-04-23T08:01:14.189Z,73.30
2019-04-23T08:03:43.936Z,74.00
2019-04-23T08:06:13.237Z,74.10
2019-04-23T08:08:41.814Z,73.90
2019-04-23T08:21:22.814Z,73.70
2019-04-23T08:24:06.583Z,74.20
2019-04-23T08:26:55.138Z,72.10
2019-04-23T08:29:30.676Z,72.30
2019-04-23T08:32:12.442Z,71.60
2019-04-23T08:44:45.643Z,71.10
2019-04-23T08:47:23.286Z,71.10
2019-04-23T08:49:50.693Z,71.40
2019-04-23T08:52:38.323Z,71.90
2019-04-23T09:02:35.691Z,71.50
2019-04-23T09:05:00.182Z,71.50
2019-04-23T09:09:56.840Z,71.50
2019-04-23T09:12:31.699Z,71.20
2019-04-23T09:15:01.945Z,71.00
2019-04-23T09:17:26.774Z,71.20
2019-04-23T09:20:11.844Z,71.20
2019-04-23T09:22:33.391Z,70.70
2019-04-23T09:25:28.364Z,71.10
2019-04-23T09:27:46.282Z,70.90
2019-04-23T09:30:22.874Z,70.90
2019-04-23T09:32:46.898Z,70.70
2019-04-23T09:41:12.285Z,71.10
2019-04-23T09:48:44.189Z,71.10
2019-04-23T09:51:10.317Z,70.20
2019-04-23T09:53:46.898Z,69.90
2019-04-23T09:56:07.329Z,70.50
2019-04-23T09:58:49.967Z,69.60
2019-04-23T10:01:25.857Z,69.80
2019-04-23T10:03:41.755Z,69.90
2019-04-23T10:06:08.205Z,67.70
2019-04-23T10:08:36.532Z,68.50
2019-04-23T10:11:01.199Z,67.80
2019-04-23T10:13:29.846Z,67.80
2019-04-23T10:15:59.969Z,67.70
2019-04-23T10:18:29.171Z,67.50
2019-04-23T10:20:59.367Z,67.20
2019-04-23T10:23:29.379Z,67.30
2019-04-23T10:25:58.283Z,67.70
2019-04-23T10:28:38.133Z,67.20
2019-04-23T10:31:07.216Z,67.50
2019-04-23T10:33:35.823Z,68.50
2019-04-23T10:36:09.418Z,67.40
2019-04-23T10:38:36.261Z,67.80
2019-04-23T10:41:06.360Z,66.60
2019-04-23T10:43:38.775Z,66.00
2019-04-23T10:46:36.494Z,67.20
2019-04-23T10:49:41.871Z,66.40
2019-04-23T10:52:01.679Z,67.00
2019-04-23T10:54:39.954Z,66.70
2019-04-23T10:57:12.746Z,67.30
2019-04-23T10:59:38.828Z,68.00
2019-04-23T11:02:28.951Z,68.00
2019-04-23T11:04:54.242Z,66.30
2019-04-23T11:07:27.103Z,65.90
2019-04-23T11:10:05.173Z,65.90
2019-04-23T11:17:46.475Z,65.40
2019-04-23T11:20:24.410Z,65.30
2019-04-23T11:25:20.429Z,66.50
2019-04-23T11:30:21.679Z,65.50
2019-04-23T11:37:54.662Z,66.60
2019-04-23T11:42:42.741Z,66.20
2019-04-23T11:45:14.736Z,66.10
2019-04-23T11:51:07.471Z,65.30
2019-04-23T11:55:29.282Z,64.60
2019-04-23T11:57:53.721Z,64.80
2019-04-23T12:00:14.513Z,64.30
2019-04-23T12:05:50.631Z,64.90
2019-04-23T12:08:23.283Z,64.00
2019-04-23T12:11:00.282Z,64.10
2019-04-23T12:13:26.672Z,65.30
2019-04-23T12:15:56.898Z,64.00
2019-04-23T12:18:28.396Z,63.80
2019-04-23T12:20:49.076Z,62.50
2019-04-23T12:23:38.214Z,64.70
2019-04-23T12:26:06.665Z,64.50
2019-04-23T12:28:33.708Z,63.70
2019-04-23T12:31:00.523Z,64.30
2019-04-23T12:35:54.008Z,62.70
2019-04-23T12:38:26.987Z,64.10
2019-04-23T12:41:04.992Z,61.70
2019-04-23T12:43:25.147Z,61.70
2019-04-23T12:45:56.429Z,61.80
2019-04-23T12:48:44.086Z,61.50
2019-04-23T12:51:29.809Z,62.90
2019-04-23T12:53:33.598Z,60.90
2019-04-23T12:56:05.151Z,59.70
2019-04-23T13:00:58.699Z,59.60
2019-04-23T13:05:53.881Z,58.60
2019-04-23T13:08:38.189Z,58.40
2019-04-23T13:11:23.628Z,60.10
2019-04-23T13:13:37.696Z,59.60
2019-04-23T13:18:38.081Z,59.90
2019-04-23T13:21:46.694Z,58.70
2019-04-23T13:24:11.314Z,58.20
2019-04-23T13:26:35.707Z,59.20
2019-04-23T13:29:18.766Z,57.80
2019-04-23T13:31:39.930Z,59.50
2019-04-23T13:34:14.756Z,58.10
2019-04-23T13:36:45.081Z,59.10
2019-04-23T13:39:21.161Z,58.50
2019-04-23T13:41:42.087Z,58.90
2019-04-23T13:44:19.614Z,58.40
2019-04-23T13:46:40.983Z,58.30
2019-04-23T13:49:17.466Z,58.00
2019-04-23T13:51:47.228Z,58.20
2019-04-23T13:54:42.088Z,58.20
2019-04-23T13:59:44.608Z,59.60
2019-04-23T14:02:16.950Z,60.10
2019-04-23T14:07:24.902Z,59.70
2019-04-23T14:09:57.213Z,59.90
2019-04-23T14:12:17.627Z,60.20
2019-04-23T14:17:38.230Z,60.90
2019-04-23T14:20:01.055Z,61.20
2019-04-23T14:22:54.765Z,62.40
2019-04-23T14:25:11.343Z,61.50
2019-04-23T14:27:44.628Z,61.40
2019-04-23T14:30:06.617Z,61.40
2019-04-23T14:32:29.328Z,60.60
2019-04-23T14:37:31.098Z,62.00
2019-04-23T14:40:16.064Z,60.70
2019-04-23T14:42:56.145Z,60.50
2019-04-23T14:45:29.580Z,60.90
2019-04-23T14:48:07.249Z,61.80
2019-04-23T14:52:58.900Z,61.50
2019-04-23T14:58:02.069Z,61.60
2019-04-23T15:00:25.342Z,61.90
2019-04-23T15:02:54.577Z,62.40
2019-04-23T15:05:17.451Z,62.60
2019-04-23T15:07:50.684Z,63.00
2019-04-23T15:12:57.915Z,63.80
2019-04-23T15:15:22.475Z,63.80
2019-04-23T15:17:53.945Z,64.30
2019-04-23T15:20:23.109Z,63.90
2019-04-23T15:23:09.198Z,64.30
2019-04-23T15:30:14.378Z,64.80
2019-04-23T15:33:04.226Z,65.00
2019-04-23T15:35:31.381Z,64.50
2019-04-23T15:38:24.645Z,64.50
2019-04-23T15:40:23.294Z,64.60
2019-04-23T15:42:57.991Z,65.00
2019-04-23T15:45:21.017Z,64.50
2019-04-23T15:48:00.594Z,65.90
2019-04-23T15:50:29.708Z,65.00
2019-04-23T15:52:56.618Z,64.70
2019-04-23T15:55:43.845Z,65.50
2019-04-23T16:00:27.617Z,65.10
2019-04-23T16:02:28.605Z,66.20
2019-04-23T16:04:58.079Z,64.50
2019-04-23T16:07:41.234Z,65.30
2019-04-23T16:10:34.195Z,65.30
2019-04-23T16:12:56.752Z,65.10
2019-04-23T16:15:19.337Z,66.20
2019-04-23T16:18:15.804Z,66.10
2019-04-23T16:23:06.474Z,66.80
2019-04-23T16:25:40.368Z,66.70
2019-04-23T16:28:12.883Z,66.30
2019-04-23T16:30:42.286Z,66.00
2019-04-23T16:33:16.355Z,67.00
2019-04-23T16:35:51.537Z,66.20
2019-04-23T16:40:48.936Z,67.50
2019-04-23T16:45:51.825Z,66.20
2019-04-23T16:48:40.604Z,66.80
2019-04-23T16:51:11.865Z,66.90
2019-04-23T16:53:21.513Z,67.70
2019-04-23T16:55:55.099Z,67.30
2019-04-23T16:58:27.816Z,68.10
2019-04-23T17:01:05.940Z,67.50
2019-04-23T17:03:28.306Z,68.00
2019-04-23T17:05:56.798Z,68.90
2019-04-23T17:08:42.252Z,69.00
2019-04-23T17:13:24.065Z,68.30
2019-04-23T17:16:00.887Z,69.30
2019-04-23T17:18:27.460Z,68.80
2019-04-23T17:23:34.589Z,69.10
2019-04-23T17:26:00.844Z,69.10
2019-04-23T17:28:31.849Z,69.90
2019-04-23T17:31:20.797Z,69.70
2019-04-23T17:33:38.276Z,70.20
2019-04-23T17:36:18.225Z,69.80
2019-04-23T17:39:04.661Z,70.30
2019-04-23T17:44:09.562Z,70.40
2019-04-23T17:46:36.787Z,70.60
2019-04-23T17:49:13.182Z,70.80
2019-04-23T17:51:37.819Z,70.80
2019-04-23T17:54:10.974Z,70.70
2019-04-23T17:56:47.610Z,71.10
2019-04-23T17:59:12.058Z,71.40
2019-04-23T18:01:35.813Z,71.30
2019-04-23T18:04:20.723Z,71.80
2019-04-23T18:06:56.073Z,71.70
2019-04-23T18:09:16.576Z,71.90
2019-04-23T18:11:40.248Z,72.50
2019-04-23T18:14:07.159Z,72.20
2019-04-23T18:16:51.733Z,72.20
2019-04-23T18:19:12.376Z,72.80
2019-04-23T18:24:22.703Z,72.70
2019-04-23T18:27:00.043Z,73.20
2019-04-23T18:29:42.088Z,73.50
2019-04-23T18:32:30.172Z,74.00
2019-04-23T18:35:12.016Z,74.20
2019-04-23T18:37:26.133Z,75.10
2019-04-23T18:39:49.977Z,74.80
2019-04-23T18:42:28.344Z,74.90
2019-04-23T18:44:50.704Z,74.80
2019-04-23T18:47:32.379Z,74.40
2019-04-23T18:49:55.812Z,75.10
2019-04-23T18:52:41.306Z,75.40
2019-04-23T18:54:48.067Z,75.60
2019-04-23T19:00:03.394Z,75.70
2019-04-23T19:02:45.365Z,76.10
2019-04-23T19:05:07.211Z,76.20
2019-04-23T19:08:01.017Z,76.60
2019-04-23T19:10:45.858Z,76.90
2019-04-23T19:13:07.380Z,77.10
2019-04-23T19:15:42.352Z,77.30
2019-04-23T19:18:23.950Z,77.70
2019-04-23T19:25:53.586Z,77.90
2019-04-23T19:28:23.688Z,78.10
2019-04-23T19:33:25.383Z,78.80
2019-04-23T19:36:05.082Z,78.60
2019-04-23T19:38:21.513Z,78.80
2019-04-23T19:40:51.744Z,79.10
2019-04-23T19:43:18.107Z,79.60
2019-04-23T19:45:55.605Z,80.00
2019-04-23T19:48:25.375Z,80.10
2019-04-23T19:53:25.315Z,80.60
2019-04-23T19:56:04.425Z,81.10
2019-04-23T19:58:32.929Z,81.50
2019-04-23T20:05:59.501Z,81.70
2019-04-23T20:08:43.190Z,82.10
2019-04-23T20:10:54.315Z,82.50
2019-04-23T20:13:33.174Z,82.80
2019-04-23T20:16:05.577Z,83.60
2019-04-23T20:18:35.387Z,83.60
2019-04-23T20:20:55.130Z,84.00
2019-04-23T20:23:43.208Z,84.50
2019-04-23T20:28:51.278Z,84.50
2019-04-23T20:34:07.741Z,84.90
2019-04-23T20:36:40.740Z,85.80
2019-04-23T20:41:35.451Z,86.30
2019-04-23T20:43:55.566Z,87.00
2019-04-23T20:46:27.356Z,86.80
2019-04-23T20:48:56.932Z,87.70
2019-04-23T20:51:28.691Z,87.70
2019-04-23T20:54:00.672Z,88.60
2019-04-23T20:56:28.404Z,88.80
2019-04-23T21:01:34.177Z,88.50
2019-04-23T21:03:55.458Z,89.80
2019-04-23T21:06:30.587Z,89.40
2019-04-23T21:11:38.678Z,90.10
2019-04-23T21:18:55.751Z,90.10
2019-04-23T21:21:33.828Z,90.40
2019-04-23T21:24:03.962Z,90.70
2019-04-23T21:26:35.772Z,90.80
2019-04-23T21:29:03.998Z,90.90
2019-04-23T21:31:42.331Z,91.20
2019-04-23T21:34:13.178Z,91.50
2019-04-23T21:36:40.163Z,91.40
2019-04-23T21:39:15.091Z,91.50
2019-04-23T21:46:51.000Z,91.80
2019-04-23T21:51:49.305Z,92.60
2019-04-23T21:54:12.394Z,92.40
2019-04-23T21:56:48.631Z,92.60
2019-04-23T21:59:13.479Z,92.60
2019-04-23T22:04:40.961Z,92.90
2019-04-23T22:09:32.152Z,93.30
2019-04-23T22:12:07.160Z,93.70
2019-04-23T22:14:27.102Z,93.90
2019-04-23T22:17:10.283Z,93.90
2019-04-23T22:19:19.629Z,94.00
2019-04-23T22:21:57.278Z,94.00
2019-04-23T22:24:25.633Z,94.10
2019-04-23T22:26:53.227Z,94.00
2019-04-23T22:29:35.824Z,94.00
2019-04-23T22:31:56.694Z,94.20
2019-04-23T22:39:40.360Z,94.60
2019-04-23T22:42:22.000Z,94.50
2019-04-23T22:44:50.714Z,94.60
2019-04-23T22:47:32.364Z,94.80
2019-04-23T22:49:44.091Z,94.80
2019-04-23T22:52:18.673Z,95.10
2019-04-23T22:54:51.726Z,95.00
2019-04-23T22:57:42.679Z,95.20
2019-04-23T23:00:00.855Z,95.30
2019-04-23T23:02:25.520Z,95.30
2019-04-23T23:05:12.271Z,95.50
2019-04-23T23:07:28.894Z,95.80
2019-04-23T23:10:00.942Z,96.00
2019-04-23T23:12:33.649Z,96.30
2019-04-23T23:15:00.961Z,96.50
2019-04-23T23:17:35.475Z,96.80
2019-04-23T23:20:05.698Z,96.60
2019-04-23T23:22:27.300Z,96.90
2019-04-23T23:25:04.657Z,96.60
2019-04-23T23:27:26.130Z,97.00
2019-04-23T23:30:06.430Z,96.90
2019-04-23T23:32:30.845Z,96.70
2019-04-23T23:37:27.689Z,97.00
2019-04-23T23:40:08.324Z,97.00
2019-04-23T23:42:28.261Z,96.80
2019-04-23T23:45:01.931Z,96.70
2019-04-23T23:50:15.748Z,96.60
2019-04-23T23:52:32.904Z,97.00
2019-04-23T23:55:03.726Z,96.80
2019-04-23T23:57:23.327Z,96.60
